createdAt,value
2019-05-02T00:00:56.445Z,4.50
2019-05-02T00:03:25.672Z,5.20
2019-05-02T00:05:53.315Z,5.63
2019-05-02T00:08:21.487Z,4.77
2019-05-02T00:10:49.740Z,4.50
2019-05-02T00:13:18.474Z,4.47
2019-05-02T00:15:47.840Z,5.13
2019-05-02T00:18:16.257Z,4.17
2019-05-02T00:20:43.866Z,4.77
2019-05-02T00:23:11.392Z,4.57
2019-05-02T00:25:38.799Z,5.27
2019-05-02T00:28:07.763Z,5.23
2019-05-02T00:30:36.123Z,6.67
2019-05-02T00:33:03.742Z,4.03
2019-05-02T00:35:31.158Z,5.00
2019-05-02T00:38:02.518Z,4.10
2019-05-02T00:40:27.943Z,4.13
2019-05-02T00:42:58.143Z,4.27
2019-05-02T00:45:25.922Z,5.30
2019-05-02T00:48:00.776Z,4.60
2019-05-02T00:50:32.244Z,6.07
2019-05-02T00:52:59.648Z,5.80
2019-05-02T00:55:28.882Z,7.00
2019-05-02T00:57:56.966Z,6.23
2019-05-02T01:00:24.532Z,6.47
2019-05-02T01:02:56.393Z,4.80
2019-05-02T01:05:24.006Z,6.50
2019-05-02T01:07:51.376Z,5.53
2019-05-02T01:10:21.288Z,5.13
2019-05-02T01:12:48.104Z,5.50
2019-05-02T01:15:15.716Z,5.60
2019-05-02T01:17:43.099Z,5.70
2019-05-02T01:20:11.132Z,6.87
2019-05-02T01:22:38.637Z,6.67
2019-05-02T01:25:15.062Z,6.40
2019-05-02T01:27:47.494Z,6.53
2019-05-02T01:30:41.834Z,5.97
2019-05-02T01:33:19.125Z,6.90
2019-05-02T01:35:52.326Z,8.90
2019-05-02T01:38:39.132Z,6.30
2019-05-02T01:41:06.627Z,6.77
2019-05-02T01:43:34.059Z,7.67
2019-05-02T01:46:01.389Z,6.87
2019-05-02T01:48:28.786Z,6.47
2019-05-02T01:50:56.188Z,7.13
2019-05-02T01:53:23.881Z,6.27
2019-05-02T01:55:52.040Z,9.03
2019-05-02T01:58:22.744Z,6.53
2019-05-02T02:00:50.112Z,7.27
2019-05-02T02:03:17.590Z,8.40
2019-05-02T02:05:45.101Z,8.30
2019-05-02T02:08:12.518Z,7.93
2019-05-02T02:10:39.957Z,8.03
2019-05-02T02:13:07.310Z,6.80
2019-05-02T02:15:34.721Z,6.80
2019-05-02T02:18:02.329Z,8.13
2019-05-02T02:20:34.027Z,8.37
2019-05-02T02:23:19.863Z,7.53
2019-05-02T02:25:53.839Z,8.33
2019-05-02T02:28:21.302Z,8.27
2019-05-02T02:30:48.730Z,9.77
2019-05-02T02:33:16.081Z,10.97
2019-05-02T02:35:49.499Z,9.93
2019-05-02T02:38:12.898Z,9.17
2019-05-02T02:40:40.253Z,9.30
2019-05-02T02:43:30.035Z,7.50
2019-05-02T02:45:57.655Z,7.53
2019-05-02T02:48:22.028Z,8.20
2019-05-02T02:50:49.442Z,8.03
2019-05-02T02:53:29.239Z,7.70
2019-05-02T02:56:01.682Z,9.80
2019-05-02T02:58:26.703Z,8.23
2019-05-02T03:00:54.115Z,9.00
2019-05-02T03:03:28.007Z,7.87
2019-05-02T03:05:50.885Z,9.10
2019-05-02T03:08:18.345Z,10.17
2019-05-02T03:10:46.659Z,11.10
2019-05-02T03:13:53.658Z,10.90
2019-05-02T03:16:21.198Z,10.30
2019-05-02T03:18:48.641Z,8.20
2019-05-02T03:21:20.353Z,9.63
2019-05-02T03:23:45.419Z,10.77
2019-05-02T03:26:15.060Z,13.67
2019-05-02T03:28:42.343Z,9.67
2019-05-02T03:31:22.956Z,8.57
2019-05-02T03:33:53.580Z,11.23
2019-05-02T03:36:26.274Z,10.47
2019-05-02T03:38:39.204Z,12.57
2019-05-02T03:41:12.998Z,9.77
2019-05-02T03:43:36.082Z,11.23
2019-05-02T03:46:03.595Z,9.63
2019-05-02T03:48:30.938Z,10.23
2019-05-02T03:50:58.458Z,11.50
2019-05-02T03:53:27.755Z,10.40
2019-05-02T03:55:55.829Z,9.23
2019-05-02T03:58:23.240Z,10.67
2019-05-02T04:01:00.328Z,7.87
2019-05-02T04:03:20.828Z,9.30
2019-05-02T04:05:48.560Z,10.60
2019-05-02T04:08:20.954Z,12.00
2019-05-02T04:11:21.691Z,8.43
2019-05-02T04:13:51.944Z,10.97
2019-05-02T04:16:19.474Z,9.30
2019-05-02T04:18:54.533Z,10.63
2019-05-02T04:21:24.277Z,8.10
2019-05-02T04:23:48.044Z,9.30
2019-05-02T04:26:17.057Z,8.93
2019-05-02T04:28:45.669Z,9.37
2019-05-02T04:31:14.102Z,10.13
2019-05-02T04:33:41.727Z,10.37
2019-05-02T04:36:15.523Z,8.30
2019-05-02T04:38:47.136Z,11.07
2019-05-02T04:41:09.345Z,10.73
2019-05-02T04:43:40.780Z,10.57
2019-05-02T04:46:09.405Z,12.23
2019-05-02T04:48:43.802Z,10.70
2019-05-02T04:51:10.127Z,10.30
2019-05-02T04:53:40.899Z,11.70
2019-05-02T04:56:09.703Z,8.63
2019-05-02T04:58:37.170Z,10.80
2019-05-02T05:01:03.097Z,11.67
2019-05-02T05:03:30.581Z,8.97
2019-05-02T05:05:59.422Z,11.73
2019-05-02T05:08:31.790Z,10.97
2019-05-02T05:10:57.349Z,10.23
2019-05-02T05:13:26.535Z,10.30
2019-05-02T05:15:54.120Z,8.70
2019-05-02T05:18:21.557Z,8.70
2019-05-02T05:20:52.862Z,8.53
2019-05-02T05:23:32.316Z,11.87
2019-05-02T05:26:03.356Z,8.80
2019-05-02T05:28:29.180Z,11.67
2019-05-02T05:30:58.320Z,11.73
2019-05-02T05:33:27.925Z,11.33
2019-05-02T05:35:55.209Z,10.13
2019-05-02T05:38:23.056Z,9.63
2019-05-02T05:40:51.912Z,10.13
2019-05-02T05:43:20.599Z,8.83
2019-05-02T05:45:55.912Z,15.20
2019-05-02T05:48:18.415Z,9.93
2019-05-02T05:50:47.782Z,12.17
2019-05-02T05:53:17.084Z,10.77
2019-05-02T05:55:47.228Z,9.33
2019-05-02T05:58:15.825Z,11.63
2019-05-02T06:00:45.935Z,10.40
2019-05-02T06:03:14.151Z,9.07
2019-05-02T06:05:42.317Z,12.47
2019-05-02T06:08:13.815Z,9.23
2019-05-02T06:10:43.781Z,10.70
2019-05-02T06:13:10.819Z,14.83
2019-05-02T06:15:38.941Z,11.57
2019-05-02T06:18:07.210Z,10.10
2019-05-02T06:20:34.716Z,7.93
2019-05-02T06:23:02.252Z,8.57
2019-05-02T06:25:34.350Z,7.23
2019-05-02T06:28:00.277Z,11.57
2019-05-02T06:30:31.021Z,10.63
2019-05-02T06:32:57.717Z,11.83
2019-05-02T06:35:25.184Z,10.53
2019-05-02T06:37:52.599Z,11.73
2019-05-02T06:40:20.059Z,7.17
2019-05-02T06:42:47.499Z,9.97
2019-05-02T06:45:17.026Z,9.10
2019-05-02T06:47:44.445Z,12.33
2019-05-02T06:50:12.501Z,8.67
2019-05-02T06:52:39.931Z,9.20
2019-05-02T06:55:07.564Z,7.63
2019-05-02T06:57:34.957Z,9.77
2019-05-02T07:00:03.531Z,8.60
2019-05-02T07:02:33.531Z,11.40
2019-05-02T07:05:00.385Z,8.23
2019-05-02T07:07:31.398Z,8.57
2019-05-02T07:09:57.680Z,8.57
2019-05-02T07:12:25.095Z,8.10
2019-05-02T07:14:55.987Z,10.80
2019-05-02T07:17:44.632Z,10.43
2019-05-02T07:20:12.606Z,12.27
2019-05-02T07:22:40.897Z,9.43
2019-05-02T07:25:09.840Z,7.87
2019-05-02T07:27:39.217Z,8.00
2019-05-02T07:30:09.896Z,9.30
2019-05-02T07:32:37.342Z,7.90
2019-05-02T07:35:05.660Z,9.27
2019-05-02T07:37:33.056Z,10.03
2019-05-02T07:40:00.673Z,10.13
2019-05-02T07:42:28.128Z,7.97
2019-05-02T07:44:55.533Z,7.30
2019-05-02T07:47:22.939Z,9.50
2019-05-02T07:49:50.349Z,9.30
2019-05-02T07:52:17.748Z,8.50
2019-05-02T07:54:45.196Z,8.87
2019-05-02T07:57:12.769Z,7.50
2019-05-02T07:59:40.189Z,8.57
2019-05-02T08:02:07.635Z,11.13
2019-05-02T08:04:35.093Z,7.83
2019-05-02T08:07:02.856Z,12.63
2019-05-02T08:09:30.375Z,9.40
2019-05-02T08:11:57.794Z,7.23
2019-05-02T08:14:29.169Z,8.70
2019-05-02T08:17:04.998Z,8.10
2019-05-02T08:19:23.863Z,7.87
2019-05-02T08:21:51.270Z,8.17
2019-05-02T08:24:18.658Z,9.17
2019-05-02T08:27:05.587Z,8.67
2019-05-02T08:29:33.937Z,8.10
2019-05-02T08:32:01.427Z,7.13
2019-05-02T08:34:30.617Z,8.47
2019-05-02T08:36:58.796Z,6.67
2019-05-02T08:39:33.027Z,6.80
2019-05-02T08:41:57.934Z,8.30
2019-05-02T08:44:25.451Z,6.77
2019-05-02T08:46:53.329Z,7.93
2019-05-02T08:49:20.815Z,7.80
2019-05-02T08:51:48.184Z,10.27
2019-05-02T08:54:15.592Z,9.17
2019-05-02T08:56:43.510Z,9.33
2019-05-02T08:59:10.928Z,7.37
2019-05-02T09:01:38.329Z,9.20
2019-05-02T09:04:05.757Z,12.57
2019-05-02T09:06:33.206Z,6.33
2019-05-02T09:09:00.595Z,6.70
2019-05-02T09:11:28.169Z,10.03
2019-05-02T09:13:55.644Z,7.77
2019-05-02T09:16:28.757Z,6.90
2019-05-02T09:18:54.160Z,6.83
2019-05-02T09:21:22.024Z,8.47
2019-05-02T09:23:51.712Z,6.30
2019-05-02T09:26:26.350Z,8.00
2019-05-02T09:28:48.417Z,7.63
2019-05-02T09:31:15.842Z,7.90
2019-05-02T09:33:46.780Z,8.83
2019-05-02T09:36:12.596Z,6.53
2019-05-02T09:38:42.344Z,8.90
2019-05-02T09:41:16.898Z,7.27
2019-05-02T09:43:39.254Z,9.13
2019-05-02T09:46:07.291Z,6.00
2019-05-02T09:48:36.226Z,7.37
2019-05-02T09:51:11.602Z,6.37
2019-05-02T09:53:33.352Z,7.80
2019-05-02T09:56:02.168Z,11.53
2019-05-02T09:58:31.864Z,11.17
2019-05-02T10:01:05.073Z,6.93
2019-05-02T10:03:32.688Z,9.00
2019-05-02T10:06:00.223Z,7.83
2019-05-02T10:08:27.783Z,9.77
2019-05-02T10:10:55.313Z,6.10
2019-05-02T10:13:22.918Z,6.13
2019-05-02T10:15:52.577Z,6.00
2019-05-02T10:18:25.504Z,8.87
2019-05-02T10:20:49.390Z,6.40
2019-05-02T10:23:19.623Z,8.90
2019-05-02T10:25:47.055Z,7.27
2019-05-02T10:28:14.924Z,10.47
2019-05-02T10:30:47.012Z,9.67
2019-05-02T10:33:12.277Z,7.07
2019-05-02T10:35:43.388Z,7.53
2019-05-02T10:38:17.618Z,8.77
2019-05-02T10:40:42.357Z,8.73
2019-05-02T10:43:11.759Z,8.30
2019-05-02T10:45:42.530Z,8.67
2019-05-02T10:48:22.789Z,10.13
2019-05-02T10:50:45.539Z,8.87
2019-05-02T10:53:15.733Z,8.63
2019-05-02T10:55:42.645Z,10.00
2019-05-02T10:58:12.305Z,6.03
2019-05-02T11:00:43.479Z,9.30
2019-05-02T11:03:38.090Z,9.03
2019-05-02T11:06:07.750Z,10.93
2019-05-02T11:08:36.690Z,6.87
2019-05-02T11:11:06.208Z,9.00
2019-05-02T11:14:00.855Z,10.70
2019-05-02T11:16:42.454Z,12.60
2019-05-02T11:19:13.172Z,10.40
2019-05-02T11:21:53.483Z,8.13
2019-05-02T11:24:12.164Z,7.90
2019-05-02T11:26:39.530Z,9.80
2019-05-02T11:29:06.965Z,8.33
2019-05-02T11:31:34.416Z,11.53
2019-05-02T11:34:02.056Z,7.67
2019-05-02T11:36:29.661Z,6.70
2019-05-02T11:39:09.092Z,6.63
2019-05-02T11:41:26.520Z,6.77
2019-05-02T11:43:55.759Z,8.23
2019-05-02T11:46:23.378Z,6.33
2019-05-02T11:48:56.166Z,8.53
2019-05-02T11:51:20.129Z,7.07
2019-05-02T11:53:47.577Z,9.67
2019-05-02T11:56:15.017Z,6.80
2019-05-02T11:58:48.215Z,7.97
2019-05-02T12:01:12.553Z,7.37
2019-05-02T12:03:44.167Z,7.83
2019-05-02T12:06:17.104Z,9.47
2019-05-02T12:08:45.050Z,8.50
2019-05-02T12:11:16.171Z,6.27
2019-05-02T12:13:42.773Z,8.87
2019-05-02T12:16:12.556Z,5.97
2019-05-02T12:18:41.877Z,6.93
2019-05-02T12:21:11.907Z,5.97
2019-05-02T12:23:41.688Z,7.57
2019-05-02T12:26:09.066Z,6.73
2019-05-02T12:28:36.449Z,10.13
2019-05-02T12:31:08.087Z,8.57
2019-05-02T12:33:38.177Z,6.83
2019-05-02T12:36:08.026Z,9.63
2019-05-02T12:38:35.411Z,5.77
2019-05-02T12:41:02.893Z,5.57
2019-05-02T12:43:31.886Z,7.23
2019-05-02T12:45:59.369Z,7.77
2019-05-02T12:48:26.746Z,5.63
2019-05-02T12:50:54.200Z,7.10
2019-05-02T12:53:22.008Z,5.37
2019-05-02T12:55:49.561Z,8.53
2019-05-02T12:58:17.494Z,7.43
2019-05-02T13:00:44.855Z,5.47
2019-05-02T13:03:31.883Z,5.83
2019-05-02T13:05:59.709Z,7.30
2019-05-02T13:08:27.145Z,4.80
2019-05-02T13:11:07.650Z,5.67
2019-05-02T13:13:35.131Z,4.97
2019-05-02T13:16:03.813Z,6.70
2019-05-02T13:18:36.779Z,6.13
2019-05-02T13:21:02.919Z,6.93
2019-05-02T13:23:46.260Z,5.57
2019-05-02T13:26:19.901Z,7.60
2019-05-02T13:28:44.229Z,5.63
2019-05-02T13:31:32.028Z,4.90
2019-05-02T13:34:11.050Z,7.73
2019-05-02T13:36:42.307Z,9.80
2019-05-02T13:39:18.842Z,4.60
2019-05-02T13:41:46.492Z,5.60
2019-05-02T13:44:16.680Z,9.90
2019-05-02T13:46:44.131Z,5.87
2019-05-02T13:49:13.301Z,5.17
2019-05-02T13:51:42.628Z,8.20
2019-05-02T13:54:10.167Z,4.77
2019-05-02T13:56:52.716Z,6.20
2019-05-02T13:59:22.262Z,4.37
2019-05-02T14:01:52.206Z,7.03
2019-05-02T14:04:19.935Z,3.87
2019-05-02T14:06:47.664Z,5.00
2019-05-02T14:09:33.659Z,4.87
2019-05-02T14:12:19.188Z,5.10
2019-05-02T14:14:46.638Z,6.70
2019-05-02T14:17:14.756Z,6.83
2019-05-02T14:19:42.201Z,3.93
2019-05-02T14:22:09.779Z,4.90
2019-05-02T14:24:37.342Z,6.67
2019-05-02T14:27:07.165Z,4.93
2019-05-02T14:29:34.328Z,6.17
2019-05-02T14:32:02.663Z,8.03
2019-05-02T14:34:43.732Z,5.13
2019-05-02T14:37:11.811Z,4.60
2019-05-02T14:39:41.526Z,6.90
2019-05-02T14:42:15.350Z,6.93
2019-05-02T14:45:01.226Z,5.63
2019-05-02T14:47:09.998Z,5.60
2019-05-02T14:49:37.267Z,7.33
2019-05-02T14:52:07.029Z,5.63
2019-05-02T14:54:38.141Z,5.73
2019-05-02T14:57:08.489Z,5.27
2019-05-02T14:59:36.025Z,5.83
2019-05-02T15:02:07.735Z,7.73
2019-05-02T15:04:38.265Z,9.77
2019-05-02T15:07:04.971Z,6.63
2019-05-02T15:09:35.725Z,6.13
2019-05-02T15:12:08.227Z,9.47
2019-05-02T15:14:33.449Z,6.83
2019-05-02T15:17:02.549Z,5.77
2019-05-02T15:19:32.686Z,6.63
2019-05-02T15:22:01.958Z,6.97
2019-05-02T15:24:33.414Z,6.33
2019-05-02T15:27:03.984Z,5.60
2019-05-02T15:29:28.095Z,7.13
2019-05-02T15:32:22.247Z,5.30
2019-05-02T15:35:02.680Z,5.90
2019-05-02T15:37:31.992Z,8.50
2019-05-02T15:42:28.822Z,7.70
2019-05-02T15:44:57.066Z,7.93
2019-05-02T15:47:25.640Z,6.00
2019-05-02T15:49:53.183Z,7.17
2019-05-02T15:52:27.848Z,5.47
2019-05-02T15:54:59.566Z,4.83
2019-05-02T15:57:25.033Z,8.13
2019-05-02T15:59:52.664Z,9.37
2019-05-02T16:02:22.819Z,6.37
2019-05-02T16:04:52.141Z,7.10
2019-05-02T16:07:19.672Z,7.80
2019-05-02T16:09:47.127Z,5.53
2019-05-02T16:12:14.657Z,5.93
2019-05-02T16:14:42.607Z,6.03
2019-05-02T16:17:12.251Z,7.13
2019-05-02T16:19:45.006Z,7.77
2019-05-02T16:22:16.680Z,10.53
2019-05-02T16:24:48.793Z,9.93
2019-05-02T16:27:16.567Z,7.00
2019-05-02T16:29:42.951Z,5.80
2019-05-02T16:32:25.477Z,5.80
2019-05-02T16:34:58.150Z,5.40
2019-05-02T16:37:25.664Z,5.73
2019-05-02T16:39:53.706Z,8.77
2019-05-02T16:42:22.761Z,9.27
2019-05-02T16:44:52.216Z,7.47
2019-05-02T16:47:21.844Z,7.63
2019-05-02T16:49:53.321Z,7.70
2019-05-02T16:52:18.550Z,5.43
2019-05-02T16:54:45.938Z,6.00
2019-05-02T16:57:17.319Z,4.83
2019-05-02T16:59:42.823Z,9.93
2019-05-02T17:02:12.165Z,9.13
2019-05-02T17:04:39.647Z,5.47
2019-05-02T17:07:11.637Z,7.87
2019-05-02T17:09:58.629Z,6.70
2019-05-02T17:12:26.065Z,6.03
2019-05-02T17:15:13.948Z,7.43
2019-05-02T17:17:42.346Z,8.80
2019-05-02T17:20:12.955Z,8.77
2019-05-02T17:22:41.448Z,5.97
2019-05-02T17:25:09.445Z,7.80
2019-05-02T17:27:36.800Z,6.70
2019-05-02T17:30:05.254Z,6.90
2019-05-02T17:32:34.165Z,6.23
2019-05-02T17:35:09.607Z,8.10
2019-05-02T17:37:32.529Z,7.50
2019-05-02T17:40:01.743Z,7.73
2019-05-02T17:42:29.248Z,9.83
2019-05-02T17:45:00.910Z,8.67
2019-05-02T17:47:26.057Z,7.47
2019-05-02T17:49:55.706Z,9.23
2019-05-02T17:52:32.482Z,8.20
2019-05-02T17:55:01.767Z,10.57
2019-05-02T17:57:33.492Z,9.90
2019-05-02T17:59:59.466Z,8.07
2019-05-02T18:02:27.062Z,10.80
2019-05-02T18:04:55.916Z,6.17
2019-05-02T18:07:25.292Z,7.93
2019-05-02T18:09:52.992Z,7.60
2019-05-02T18:12:21.794Z,7.97
2019-05-02T18:14:53.144Z,8.37
2019-05-02T18:17:18.981Z,8.43
2019-05-02T18:19:46.472Z,14.07
2019-05-02T18:22:23.359Z,11.27
2019-05-02T18:24:46.392Z,8.87
2019-05-02T18:27:13.069Z,7.20
2019-05-02T18:29:42.673Z,8.43
2019-05-02T18:32:10.283Z,7.93
2019-05-02T18:34:37.756Z,6.47
2019-05-02T18:37:06.345Z,7.07
2019-05-02T18:39:34.924Z,7.30
2019-05-02T18:42:03.413Z,6.13
2019-05-02T18:44:32.552Z,9.93
2019-05-02T18:47:02.298Z,6.77
2019-05-02T18:49:33.252Z,6.90
2019-05-02T18:52:01.745Z,7.07
2019-05-02T18:54:29.373Z,10.53
2019-05-02T18:56:56.865Z,8.30
2019-05-02T18:59:26.971Z,7.93
2019-05-02T19:01:56.187Z,8.63
2019-05-02T19:04:25.384Z,6.73
2019-05-02T19:06:52.741Z,8.10
2019-05-02T19:09:25.001Z,9.37
2019-05-02T19:11:52.386Z,7.93
2019-05-02T19:14:22.225Z,10.70
2019-05-02T19:16:49.290Z,8.43
2019-05-02T19:19:16.757Z,8.97
2019-05-02T19:21:44.152Z,10.77
2019-05-02T19:24:13.131Z,8.10
2019-05-02T19:26:48.648Z,10.67
2019-05-02T19:29:27.549Z,7.57
2019-05-02T19:31:55.941Z,12.63
2019-05-02T19:34:26.800Z,8.90
2019-05-02T19:36:53.041Z,9.70
2019-05-02T19:39:23.981Z,8.70
2019-05-02T19:41:52.047Z,17.47
2019-05-02T19:44:21.199Z,13.20
2019-05-02T19:46:48.908Z,8.97
2019-05-02T19:49:16.452Z,9.00
2019-05-02T19:51:43.917Z,9.33
2019-05-02T19:54:12.492Z,9.27
2019-05-02T19:56:46.001Z,9.90
2019-05-02T19:59:09.407Z,8.93
2019-05-02T20:01:36.847Z,10.20
2019-05-02T20:04:06.405Z,8.20
2019-05-02T20:06:34.278Z,8.07
2019-05-02T20:09:06.716Z,8.03
2019-05-02T20:11:32.907Z,9.47
2019-05-02T20:14:05.536Z,9.23
2019-05-02T20:16:52.807Z,9.57
2019-05-02T20:19:23.075Z,10.90
2019-05-02T20:22:12.440Z,10.47
2019-05-02T20:24:55.447Z,9.07
2019-05-02T20:27:22.420Z,11.70
2019-05-02T20:29:52.019Z,12.67
2019-05-02T20:32:19.593Z,20.63
2019-05-02T20:34:48.084Z,17.57
2019-05-02T20:37:15.603Z,18.43
2019-05-02T20:39:43.224Z,16.73
2019-05-02T20:42:12.084Z,15.33
2019-05-02T20:44:41.734Z,15.17
2019-05-02T20:47:12.965Z,17.17
2019-05-02T20:49:42.240Z,15.70
2019-05-02T20:52:11.783Z,17.87
2019-05-02T20:54:39.215Z,19.77
2019-05-02T20:57:06.777Z,20.60
2019-05-02T20:59:34.230Z,23.13
2019-05-02T21:02:01.829Z,24.17
2019-05-02T21:04:29.397Z,21.43
2019-05-02T21:07:16.451Z,17.67
2019-05-02T21:09:52.455Z,25.93
2019-05-02T21:12:20.580Z,23.07
2019-05-02T21:14:48.171Z,22.73
2019-05-02T21:17:15.594Z,18.97
2019-05-02T21:19:43.092Z,23.13
2019-05-02T21:22:18.575Z,26.27
2019-05-02T21:24:46.123Z,21.63
2019-05-02T21:27:13.784Z,18.60
2019-05-02T21:29:42.568Z,19.00
2019-05-02T21:32:12.018Z,21.80
2019-05-02T21:34:39.662Z,20.87
2019-05-02T21:37:07.103Z,24.37
2019-05-02T21:39:34.570Z,18.80
2019-05-02T21:42:02.421Z,16.97
2019-05-02T21:44:31.586Z,16.80
2019-05-02T21:46:59.119Z,14.90
2019-05-02T21:49:44.734Z,15.30
2019-05-02T21:52:34.546Z,13.27
2019-05-02T21:55:12.340Z,15.13
2019-05-02T21:57:39.864Z,18.57
2019-05-02T22:00:11.667Z,20.80
2019-05-02T22:02:39.341Z,20.67
2019-05-02T22:05:07.176Z,17.00
2019-05-02T22:07:34.808Z,18.40
2019-05-02T22:10:04.259Z,14.90
2019-05-02T22:12:31.833Z,15.60
2019-05-02T22:14:59.238Z,15.50
2019-05-02T22:17:26.706Z,15.63
2019-05-02T22:19:54.251Z,17.47
2019-05-02T22:22:22.843Z,14.30
2019-05-02T22:24:50.433Z,15.00
2019-05-02T22:27:17.849Z,10.80
2019-05-02T22:29:45.575Z,14.83
2019-05-02T22:32:12.972Z,12.73
2019-05-02T22:34:40.418Z,14.33
2019-05-02T22:37:09.770Z,17.93
2019-05-02T22:39:59.677Z,15.07
2019-05-02T22:42:27.237Z,17.07
2019-05-02T22:44:54.607Z,12.27
2019-05-02T22:47:22.733Z,14.90
2019-05-02T22:49:51.862Z,7.63
2019-05-02T22:52:19.352Z,7.87
2019-05-02T22:54:46.768Z,7.03
2019-05-02T22:57:14.464Z,7.20
2019-05-02T22:59:42.330Z,8.27
2019-05-02T23:02:09.911Z,7.93
2019-05-02T23:04:37.356Z,9.57
2019-05-02T23:07:04.889Z,8.17
2019-05-02T23:09:32.306Z,8.40
2019-05-02T23:11:59.940Z,10.17
2019-05-02T23:14:27.406Z,7.30
2019-05-02T23:16:54.846Z,6.60
2019-05-02T23:19:22.986Z,6.83
2019-05-02T23:21:52.607Z,7.13
2019-05-02T23:24:39.009Z,7.53
2019-05-02T23:27:25.380Z,7.27
2019-05-02T23:29:52.793Z,7.30
2019-05-02T23:32:23.611Z,7.70
2019-05-02T23:34:49.587Z,9.37
2019-05-02T23:37:17.026Z,6.73
2019-05-02T23:39:44.475Z,6.53
2019-05-02T23:42:13.502Z,8.27
2019-05-02T23:44:42.551Z,8.07
2019-05-02T23:47:11.753Z,7.23
2019-05-02T23:49:39.383Z,7.20
2019-05-02T23:52:06.826Z,6.70
2019-05-02T23:54:34.284Z,8.87
2019-05-02T23:57:01.829Z,7.23
2019-05-02T23:59:29.277Z,9.30
